Time;durP1;ratioP1;P1;durP2;ratioP2;P2;SDS_P1;SDS_P2;PMS_P1;PMS_P2;Temp;Humidity;BMP_temperature;BMP_pressure;BME280_temperature;BME280_humidity;BME280_pressure;Samples;Min_cycle;Max_cycle;Signal;HPM_P1;HPM_P2
2022/07/07 00:01:24;;;;;;;23.20;14.38;;;16.40;99.90;;;;;;5038030;28;20033;-69
2022/07/07 00:03:51;;;;;;;21.63;13.48;;;16.50;99.90;;;;;;5038090;28;20041;-69
2022/07/07 00:06:17;;;;;;;21.80;14.20;;;16.50;99.90;;;;;;5038238;28;20498;-71
2022/07/07 00:08:44;;;;;;;19.92;13.43;;;16.60;99.90;;;;;;5038252;28;20041;-69
2022/07/07 00:11:10;;;;;;;19.60;12.25;;;16.60;99.90;;;;;;5037847;28;20103;-69
2022/07/07 00:13:35;;;;;;;26.85;12.60;;;16.60;99.90;;;;;;5038128;28;20037;-69
2022/07/07 00:16:01;;;;;;;20.70;11.52;;;16.40;99.90;;;;;;5036477;28;20053;-69
2022/07/07 00:18:27;;;;;;;16.80;10.50;;;16.50;99.90;;;;;;5036669;28;20060;-69
2022/07/07 00:20:52;;;;;;;17.98;10.23;;;16.40;99.90;;;;;;5036635;28;20495;-69
2022/07/07 00:23:18;;;;;;;19.20;11.27;;;16.40;99.90;;;;;;5037829;28;20483;-69
2022/07/07 00:25:43;;;;;;;16.25;10.68;;;16.50;99.90;;;;;;5036781;28;20124;-69
2022/07/07 00:28:09;;;;;;;14.68;10.52;;;16.50;99.90;;;;;;5037866;28;20395;-69
2022/07/07 00:30:34;;;;;;;15.30;11.38;;;16.40;99.90;;;;;;5037608;28;20041;-69
2022/07/07 00:33:00;;;;;;;19.42;10.88;;;16.60;99.90;;;;;;5036584;28;20124;-69
2022/07/07 00:35:26;;;;;;;18.55;10.73;;;16.40;99.90;;;;;;5036671;28;20103;-69
2022/07/07 00:37:51;;;;;;;16.02;11.30;;;16.40;99.90;;;;;;5037861;28;20037;-69
2022/07/07 00:40:17;;;;;;;17.67;11.30;;;16.60;99.90;;;;;;5037602;28;20041;-69
2022/07/07 00:42:42;;;;;;;16.65;11.70;;;16.40;99.90;;;;;;5037905;28;20062;-69
2022/07/07 00:45:09;;;;;;;18.35;10.93;;;16.50;99.90;;;;;;5036345;28;20123;-69
2022/07/07 00:47:36;;;;;;;18.98;12.65;;;16.40;99.90;;;;;;5037651;28;20045;-69
2022/07/07 00:50:02;;;;;;;17.42;12.07;;;16.40;99.90;;;;;;5036102;28;20410;-69
2022/07/07 00:52:28;;;;;;;18.58;11.45;;;16.60;99.90;;;;;;5034416;28;20092;-69
2022/07/07 00:54:59;;;;;;;20.33;12.13;;;16.50;99.90;;;;;;5033194;28;20446;-69
2022/07/07 00:57:26;;;;;;;15.75;11.98;;;16.50;99.90;;;;;;5034435;28;20043;-69
2022/07/07 00:59:56;;;;;;;19.20;12.63;;;16.40;99.90;;;;;;5032896;28;20045;-69
2022/07/07 01:02:22;;;;;;;23.08;12.65;;;16.40;99.90;;;;;;5034361;28;20410;-69
2022/07/07 01:04:47;;;;;;;19.45;12.85;;;16.40;99.90;;;;;;5034505;28;20038;-69
2022/07/07 01:07:14;;;;;;;23.67;14.15;;;16.50;99.90;;;;;;5034095;28;20041;-69
2022/07/07 01:09:41;;;;;;;19.60;12.68;;;16.40;99.90;;;;;;5032705;28;20388;-69
2022/07/07 01:12:07;;;;;;;24.00;13.30;;;16.50;99.90;;;;;;5032961;28;20048;-69
2022/07/07 01:14:33;;;;;;;16.60;10.75;;;16.40;99.90;;;;;;5034205;28;20049;-69
2022/07/07 01:16:59;;;;;;;12.48;9.48;;;16.50;99.90;;;;;;5033769;28;20038;-69
2022/07/07 01:19:25;;;;;;;17.38;9.48;;;16.30;99.90;;;;;;5033844;28;20414;-68
2022/07/07 01:21:57;;;;;;;11.10;7.90;;;16.40;99.90;;;;;;5032679;28;20033;-69
2022/07/07 01:24:26;;;;;;;11.57;6.85;;;16.30;99.90;;;;;;5034240;28;20033;-69
2022/07/07 01:27:07;;;;;;;10.27;6.43;;;16.20;99.90;;;;;;5034021;28;20052;-69
2022/07/07 01:29:35;;;;;;;7.43;5.47;;;16.30;99.90;;;;;;5033855;28;20099;-69
2022/07/07 01:32:02;;;;;;;7.18;5.07;;;16.30;99.90;;;;;;5034051;28;20033;-69
2022/07/07 01:34:27;;;;;;;10.40;5.57;;;16.20;99.90;;;;;;5032654;28;20076;-69
2022/07/07 01:36:53;;;;;;;7.43;5.18;;;16.20;99.90;;;;;;5033718;28;20096;-69
2022/07/07 01:39:18;;;;;;;8.50;5.22;;;16.20;99.90;;;;;;5032289;28;20656;-68
2022/07/07 01:41:44;;;;;;;6.20;4.70;;;16.30;99.90;;;;;;5032431;28;20045;-69
2022/07/07 01:44:09;;;;;;;7.88;4.85;;;16.20;99.90;;;;;;5033605;28;20049;-69
2022/07/07 01:46:35;;;;;;;7.00;3.85;;;16.10;99.90;;;;;;5033628;28;20490;-69
2022/07/07 01:49:00;;;;;;;7.05;4.00;;;16.10;99.90;;;;;;5033665;28;20045;-69
2022/07/07 01:51:26;;;;;;;5.22;4.22;;;16.10;99.90;;;;;;5033241;28;20037;-69
2022/07/07 01:53:51;;;;;;;7.57;4.00;;;16.20;99.90;;;;;;5033466;28;20042;-69
2022/07/07 01:56:17;;;;;;;7.85;4.50;;;16.10;99.90;;;;;;5033285;28;20049;-69
2022/07/07 01:58:42;;;;;;;9.23;4.65;;;16.00;99.90;;;;;;5032049;28;20049;-69
2022/07/07 02:01:08;;;;;;;7.25;4.20;;;16.10;99.90;;;;;;5031834;28;20033;-69
2022/07/07 02:03:33;;;;;;;14.20;5.30;;;16.10;99.90;;;;;;5032122;28;20079;-69
2022/07/07 02:05:59;;;;;;;12.00;5.47;;;16.00;99.90;;;;;;5033141;28;20456;-69
2022/07/07 02:08:25;;;;;;;10.52;6.35;;;16.10;99.90;;;;;;5033196;28;20038;-69
2022/07/07 02:13:34;;;;;;;13.32;5.55;;;16.00;99.90;;;;;;5032062;28;20406;-69
2022/07/07 02:16:00;;;;;;;12.88;5.60;;;16.00;99.90;;;;;;5031533;28;20037;-69
2022/07/07 02:18:26;;;;;;;10.40;5.93;;;16.10;99.90;;;;;;5033194;28;20517;-70
2022/07/07 02:20:51;;;;;;;12.48;6.40;;;16.20;99.90;;;;;;5032794;28;20038;-69
2022/07/07 02:23:17;;;;;;;11.85;6.63;;;16.00;99.90;;;;;;5031631;28;20037;-69
2022/07/07 02:25:42;;;;;;;13.75;6.30;;;16.20;99.90;;;;;;5032741;28;20037;-69
2022/07/07 02:28:08;;;;;;;10.30;6.70;;;16.10;99.90;;;;;;5032967;28;20124;-69
2022/07/07 02:30:34;;;;;;;14.05;6.20;;;16.00;99.90;;;;;;5032592;28;20134;-69
2022/07/07 02:32:59;;;;;;;11.25;5.97;;;16.20;99.90;;;;;;5031514;28;20038;-69
2022/07/07 02:35:25;;;;;;;18.40;6.95;;;16.00;99.90;;;;;;5032599;28;20458;-69
2022/07/07 02:37:51;;;;;;;12.48;7.32;;;16.10;99.90;;;;;;5032602;28;20044;-69
2022/07/07 02:40:16;;;;;;;16.13;7.15;;;16.10;99.90;;;;;;5030981;28;20041;-69
2022/07/07 02:42:42;;;;;;;10.23;6.47;;;16.20;99.90;;;;;;5032603;28;20042;-69
2022/07/07 02:45:08;;;;;;;8.70;6.57;;;16.00;99.90;;;;;;5031295;28;20479;-69
2022/07/07 02:47:34;;;;;;;11.38;6.28;;;16.10;99.90;;;;;;5032569;28;20050;-69
2022/07/07 02:49:59;;;;;;;9.40;6.00;;;16.20;99.90;;;;;;5014445;28;20480;-69
2022/07/07 02:52:25;;;;;;;14.00;6.50;;;16.10;99.90;;;;;;5031132;28;20049;-69
2022/07/07 02:54:51;;;;;;;12.10;5.93;;;16.10;99.90;;;;;;5031284;28;20037;-69
2022/07/07 02:57:16;;;;;;;11.40;6.00;;;16.00;99.90;;;;;;5032357;28;20037;-69
2022/07/07 02:59:42;;;;;;;10.25;5.95;;;16.00;99.90;;;;;;5032190;28;20088;-69
2022/07/07 03:02:07;;;;;;;12.55;5.18;;;16.20;99.90;;;;;;5032346;28;20116;-69
2022/07/07 03:04:33;;;;;;;10.23;5.05;;;16.10;99.90;;;;;;5030885;28;20044;-69
2022/07/07 03:06:58;;;;;;;11.13;5.10;;;16.00;99.90;;;;;;5032131;28;20124;-69
2022/07/07 03:09:24;;;;;;;12.00;5.60;;;16.10;99.90;;;;;;5031825;28;20432;-68
2022/07/07 03:11:49;;;;;;;9.18;4.50;;;16.00;99.90;;;;;;5032011;28;20125;-69
2022/07/07 03:14:15;;;;;;;12.48;4.25;;;16.10;99.90;;;;;;5031674;28;20092;-68
2022/07/07 03:16:40;;;;;;;14.35;4.43;;;16.00;99.90;;;;;;5030468;28;20049;-69
2022/07/07 03:19:06;;;;;;;9.88;3.70;;;16.00;99.90;;;;;;5031968;28;20037;-69
2022/07/07 03:21:31;;;;;;;16.30;4.43;;;16.00;99.90;;;;;;5031722;28;20406;-68
2022/07/07 03:23:57;;;;;;;10.85;4.07;;;16.00;99.90;;;;;;5031860;28;20406;-70
2022/07/07 03:26:22;;;;;;;9.13;3.88;;;16.00;99.90;;;;;;5030872;28;20684;-69
2022/07/07 03:28:48;;;;;;;9.63;3.90;;;15.90;99.90;;;;;;5030652;28;20052;-69
2022/07/07 03:31:13;;;;;;;12.80;4.45;;;16.00;99.90;;;;;;5031650;28;20037;-69
2022/07/07 03:33:39;;;;;;;10.60;4.05;;;15.90;99.90;;;;;;5030481;28;20046;-69
2022/07/07 03:36:05;;;;;;;9.48;3.90;;;15.90;99.90;;;;;;5031657;28;20041;-69
2022/07/07 03:38:31;;;;;;;12.02;4.35;;;15.80;99.90;;;;;;5014024;28;20077;-69
2022/07/07 03:40:56;;;;;;;16.17;4.63;;;16.00;99.90;;;;;;5030465;28;20054;-69
2022/07/07 03:43:22;;;;;;;13.35;3.90;;;15.90;99.90;;;;;;5031891;28;20123;-68
2022/07/07 03:45:48;;;;;;;12.68;3.97;;;15.90;99.90;;;;;;5030675;28;20045;-69
2022/07/07 03:48:13;;;;;;;11.35;3.60;;;16.00;99.90;;;;;;5030133;28;20060;-69
2022/07/07 03:50:39;;;;;;;7.65;2.50;;;15.80;99.90;;;;;;5030195;28;20051;-69
2022/07/07 03:53:04;;;;;;;6.55;1.70;;;15.90;99.90;;;;;;5031513;28;20125;-68
2022/07/07 03:55:30;;;;;;;8.05;1.83;;;15.80;99.90;;;;;;5031678;28;20091;-69
2022/07/07 03:57:55;;;;;;;7.90;2.10;;;15.80;99.90;;;;;;5031678;28;20038;-69
2022/07/07 04:00:21;;;;;;;10.50;1.77;;;15.80;99.90;;;;;;5030332;28;20045;-69
2022/07/07 04:02:47;;;;;;;5.28;1.70;;;15.70;99.90;;;;;;5030216;28;20475;-69
2022/07/07 04:05:12;;;;;;;6.85;1.52;;;15.60;99.90;;;;;;5031556;28;20112;-68
2022/07/07 04:07:38;;;;;;;4.88;1.08;;;15.70;99.90;;;;;;5031284;28;20033;-69
2022/07/07 04:10:04;;;;;;;6.68;1.45;;;15.70;99.90;;;;;;5031314;28;20495;-69
2022/07/07 04:12:30;;;;;;;8.90;1.30;;;15.60;99.90;;;;;;5031547;28;20037;-69
2022/07/07 04:14:56;;;;;;;9.68;1.88;;;15.70;99.90;;;;;;5014058;28;20399;-69
2022/07/07 04:17:22;;;;;;;9.23;1.58;;;15.60;99.90;;;;;;5031319;28;20173;-69
2022/07/07 04:19:47;;;;;;;14.30;1.70;;;15.70;99.90;;;;;;5013474;28;20503;-69
2022/07/07 04:22:13;;;;;;;9.50;1.35;;;15.60;99.90;;;;;;5031320;28;20064;-68
2022/07/07 04:24:38;;;;;;;6.20;1.65;;;15.60;99.90;;;;;;5031541;28;20117;-68
2022/07/07 04:27:05;;;;;;;7.20;1.60;;;15.50;99.90;;;;;;5032448;28;20100;-68
2022/07/07 04:29:31;;;;;;;8.98;2.03;;;15.60;99.90;;;;;;5034942;28;20099;-69
2022/07/07 04:31:57;;;;;;;7.75;1.27;;;15.40;99.90;;;;;;5035062;28;20453;-68
2022/07/07 04:34:22;;;;;;;6.25;1.63;;;15.50;99.90;;;;;;5034996;28;20490;-68
2022/07/07 04:36:51;;;;;;;10.32;1.98;;;15.40;99.90;;;;;;5034731;28;20403;-69
2022/07/07 04:39:17;;;;;;;12.90;2.85;;;15.30;99.90;;;;;;5033381;28;20037;-69
2022/07/07 04:41:42;;;;;;;6.47;2.05;;;15.40;99.90;;;;;;5033581;28;20099;-68
2022/07/07 04:44:08;;;;;;;6.75;1.98;;;15.30;99.90;;;;;;5033740;28;20033;-69
2022/07/07 04:46:34;;;;;;;9.45;2.55;;;15.40;99.90;;;;;;5034644;28;20514;-68
2022/07/07 04:49:00;;;;;;;6.93;1.48;;;15.20;99.90;;;;;;5033481;28;20080;-68
2022/07/07 04:51:25;;;;;;;10.38;2.72;;;15.30;99.90;;;;;;5034381;28;20045;-68
2022/07/07 04:53:51;;;;;;;4.80;1.70;;;15.30;99.90;;;;;;5034788;28;20048;-68
2022/07/07 04:56:17;;;;;;;11.38;1.90;;;15.30;99.90;;;;;;5034580;28;20042;-68
2022/07/07 04:58:42;;;;;;;9.57;1.95;;;15.10;99.90;;;;;;5033334;28;20048;-68
2022/07/07 05:01:08;;;;;;;11.27;2.42;;;15.10;99.90;;;;;;5034281;28;20033;-68
2022/07/07 05:03:34;;;;;;;12.27;2.05;;;15.20;99.90;;;;;;5034509;28;20106;-68
2022/07/07 05:05:59;;;;;;;10.98;2.00;;;15.30;99.90;;;;;;5034248;28;20049;-68
2022/07/07 05:08:25;;;;;;;8.65;1.95;;;15.20;99.90;;;;;;5034626;28;20049;-68
2022/07/07 05:10:51;;;;;;;10.70;2.13;;;15.30;99.90;;;;;;5033967;28;20403;-68
2022/07/07 05:13:17;;;;;;;9.20;3.05;;;15.20;99.90;;;;;;5033191;28;20045;-68
2022/07/07 05:15:42;;;;;;;6.72;1.98;;;15.40;99.90;;;;;;5032834;28;20049;-69
2022/07/07 05:18:08;;;;;;;7.53;1.88;;;15.40;99.90;;;;;;5062323;22;20049;-80
2022/07/07 05:20:33;;;;;;;7.28;2.22;;;15.30;99.90;;;;;;5023457;28;20529;-81
2022/07/07 05:22:59;;;;;;;20.25;3.55;;;15.30;99.90;;;;;;5039218;28;20043;-81
2022/07/07 05:25:25;;;;;;;13.07;2.72;;;15.30;99.90;;;;;;5035925;28;20065;-80
2022/07/07 05:27:51;;;;;;;12.07;2.83;;;15.30;99.90;;;;;;5036930;28;20044;-80
2022/07/07 05:30:16;;;;;;;8.25;2.40;;;15.30;99.90;;;;;;5037951;28;20095;-80
2022/07/07 05:32:42;;;;;;;16.35;2.53;;;15.40;99.90;;;;;;5039582;28;20033;-82
2022/07/07 05:35:08;;;;;;;14.20;2.95;;;15.40;99.90;;;;;;5038939;28;20469;-81
2022/07/07 05:37:33;;;;;;;12.63;2.25;;;15.40;99.90;;;;;;5035269;28;20509;-81
2022/07/07 05:39:59;;;;;;;15.82;2.72;;;15.30;99.90;;;;;;5035517;28;20144;-80
2022/07/07 05:42:25;;;;;;;13.90;3.00;;;15.30;99.90;;;;;;5036331;28;20120;-81
2022/07/07 05:44:51;;;;;;;11.25;2.85;;;15.30;99.90;;;;;;5021708;28;20068;-81
2022/07/07 05:47:16;;;;;;;13.95;3.75;;;15.50;99.90;;;;;;5035840;28;20482;-82
2022/07/07 05:49:42;;;;;;;9.55;3.35;;;15.40;99.90;;;;;;5036897;28;20117;-80
2022/07/07 05:52:07;;;;;;;12.90;2.63;;;15.30;99.90;;;;;;5035751;28;20041;-81
2022/07/07 05:54:33;;;;;;;12.30;2.90;;;15.30;99.90;;;;;;5034994;28;20045;-81
2022/07/07 05:56:58;;;;;;;10.52;3.50;;;15.30;99.90;;;;;;5018346;28;20037;-81
2022/07/07 05:59:24;;;;;;;12.77;3.05;;;15.30;99.90;;;;;;5034254;28;20103;-81
2022/07/07 06:01:50;;;;;;;13.82;3.17;;;15.40;99.90;;;;;;5018397;28;20090;-81
2022/07/07 06:04:15;;;;;;;6.90;1.95;;;15.30;99.90;;;;;;5033743;28;20403;-81
2022/07/07 06:06:41;;;;;;;10.32;3.20;;;15.40;99.90;;;;;;5036014;28;20180;-82
2022/07/07 06:09:06;;;;;;;11.90;2.53;;;15.40;99.90;;;;;;5034528;28;20052;-81
2022/07/07 06:11:32;;;;;;;12.15;2.60;;;15.50;99.90;;;;;;5035566;28;20048;-81
2022/07/07 06:13:57;;;;;;;9.95;2.60;;;15.50;99.90;;;;;;5017877;28;20037;-81
2022/07/07 06:16:38;;;;;;;8.35;2.45;;;15.40;99.90;;;;;;5033809;28;20045;-81
2022/07/07 06:19:09;;;;;;;7.68;2.70;;;15.60;99.90;;;;;;5033803;28;20096;-81
2022/07/07 06:21:36;;;;;;;10.13;3.47;;;15.50;99.90;;;;;;5019500;28;20041;-80
2022/07/07 06:24:01;;;;;;;11.25;2.45;;;15.50;99.90;;;;;;5035200;28;20549;-80
2022/07/07 06:26:27;;;;;;;9.60;2.60;;;15.60;99.90;;;;;;5034387;28;20049;-81
2022/07/07 06:28:53;;;;;;;9.05;2.35;;;15.60;99.90;;;;;;5033259;28;20128;-79
2022/07/07 06:31:18;;;;;;;9.20;2.40;;;15.50;99.90;;;;;;5034574;28;20037;-79
2022/07/07 06:33:44;;;;;;;9.70;2.75;;;15.60;99.90;;;;;;5035561;28;20046;-81
2022/07/07 06:36:09;;;;;;;5.80;2.03;;;15.60;99.90;;;;;;5034840;28;20042;-81
2022/07/07 06:38:35;;;;;;;8.95;2.45;;;15.50;99.90;;;;;;5035573;28;20045;-81
2022/07/07 06:41:01;;;;;;;8.70;2.35;;;15.50;99.90;;;;;;5033748;28;20076;-81
2022/07/07 06:43:26;;;;;;;10.20;1.90;;;15.70;99.90;;;;;;5016616;28;20419;-81
2022/07/07 06:45:52;;;;;;;9.95;1.70;;;15.80;99.90;;;;;;5017553;28;20045;-82
2022/07/07 06:48:18;;;;;;;8.60;2.15;;;15.80;99.90;;;;;;5034676;28;20037;-83
2022/07/07 06:50:44;;;;;;;10.98;1.90;;;15.90;99.90;;;;;;5034186;28;20064;-82
2022/07/07 06:53:09;;;;;;;8.50;1.90;;;15.90;99.90;;;;;;5034514;28;20430;-80
2022/07/07 06:55:35;;;;;;;7.20;1.70;;;15.80;99.90;;;;;;5017142;28;20077;-80
2022/07/07 06:58:03;;;;;;;4.82;1.42;;;15.70;99.90;;;;;;5016443;28;20037;-82
2022/07/07 07:00:30;;;;;;;7.45;1.23;;;15.70;99.90;;;;;;5015946;28;20099;-81
2022/07/07 07:02:56;;;;;;;8.90;1.65;;;15.70;99.90;;;;;;5033028;28;20115;-81
2022/07/07 07:05:22;;;;;;;8.88;1.73;;;15.90;99.90;;;;;;5034080;28;20045;-80
2022/07/07 07:07:48;;;;;;;7.60;1.70;;;16.40;99.90;;;;;;5033372;28;20469;-81
2022/07/07 07:10:14;;;;;;;9.73;2.30;;;16.60;99.90;;;;;;5031694;28;20076;-81
2022/07/07 07:12:40;;;;;;;11.18;1.52;;;16.70;99.90;;;;;;5032491;28;20049;-80
2022/07/07 07:15:10;;;;;;;8.20;2.03;;;16.50;99.90;;;;;;5031959;28;20048;-81
2022/07/07 07:17:36;;;;;;;7.72;1.92;;;16.50;99.90;;;;;;5031431;28;20049;-80
2022/07/07 07:20:02;;;;;;;5.97;1.33;;;16.70;99.90;;;;;;5015683;28;20418;-81
2022/07/07 07:22:33;;;;;;;7.90;1.33;;;16.80;99.90;;;;;;5033419;28;20175;-80
2022/07/07 07:24:59;;;;;;;3.40;0.98;;;16.80;99.90;;;;;;5031893;28;20073;-81
2022/07/07 07:27:25;;;;;;;6.53;0.88;;;16.70;99.90;;;;;;5032637;28;20126;-81
2022/07/07 07:29:50;;;;;;;4.28;1.02;;;16.50;99.90;;;;;;5031079;28;20465;-79
2022/07/07 07:32:16;;;;;;;5.70;1.38;;;16.30;99.90;;;;;;5031190;28;20049;-80
2022/07/07 07:34:41;;;;;;;5.70;1.02;;;16.20;99.90;;;;;;5032043;28;20487;-81
2022/07/07 07:37:07;;;;;;;7.60;1.10;;;16.20;99.90;;;;;;5032468;28;20049;-80
2022/07/07 07:39:34;;;;;;;4.03;1.38;;;16.40;99.90;;;;;;5031204;28;20047;-80
2022/07/07 07:41:59;;;;;;;4.13;0.90;;;16.70;99.90;;;;;;5032246;28;20033;-81
2022/07/07 07:47:09;;;;;;;3.15;1.10;;;17.50;99.90;;;;;;5033595;28;20050;-81
2022/07/07 07:49:37;;;;;;;5.70;0.98;;;17.40;99.90;;;;;;5028236;28;20048;-80
2022/07/07 07:52:03;;;;;;;7.35;1.27;;;17.30;99.90;;;;;;5026819;28;20103;-81
2022/07/07 07:54:29;;;;;;;4.60;0.90;;;16.60;99.90;;;;;;5012792;28;20459;-80
2022/07/07 07:56:54;;;;;;;3.78;0.57;;;16.40;99.90;;;;;;5013263;28;20053;-77
2022/07/07 07:59:20;;;;;;;2.58;0.35;;;16.40;99.90;;;;;;5011961;28;20490;-80
2022/07/07 08:01:46;;;;;;;2.50;0.50;;;16.40;99.90;;;;;;5014799;28;20038;-81
2022/07/07 08:04:11;;;;;;;3.80;0.63;;;16.50;99.90;;;;;;5016949;28;20084;-82
2022/07/07 08:06:37;;;;;;;2.50;1.08;;;17.00;99.90;;;;;;5017546;28;20037;-81
2022/07/07 08:09:02;;;;;;;3.55;0.70;;;17.50;99.90;;;;;;5016596;28;20077;-80
2022/07/07 08:11:28;;;;;;;4.53;0.60;;;17.60;99.90;;;;;;4999512;28;20046;-82
2022/07/07 08:13:53;;;;;;;3.45;0.70;;;17.80;99.90;;;;;;5015874;28;20053;-80
2022/07/07 08:16:19;;;;;;;5.78;2.00;;;17.60;99.90;;;;;;5017695;28;20068;-82
2022/07/07 08:18:44;;;;;;;3.42;0.93;;;17.50;99.90;;;;;;5018564;28;20042;-80
2022/07/07 08:21:10;;;;;;;9.55;1.48;;;17.00;99.90;;;;;;5016776;28;20116;-82
2022/07/07 08:23:36;;;;;;;3.33;0.70;;;17.00;99.90;;;;;;5016323;28;20077;-80
2022/07/07 08:26:01;;;;;;;4.38;0.80;;;17.00;99.90;;;;;;5028709;28;20041;-80
2022/07/07 08:28:27;;;;;;;3.97;1.00;;;17.30;99.90;;;;;;5027567;28;20038;-82
2022/07/07 08:30:52;;;;;;;7.25;1.23;;;17.70;99.90;;;;;;5021076;28;20101;-80
2022/07/07 08:33:18;;;;;;;4.50;1.02;;;18.00;99.90;;;;;;5019590;28;20104;-85
2022/07/07 08:35:43;;;;;;;8.35;1.40;;;18.20;99.90;;;;;;5016191;28;20045;-80
2022/07/07 08:38:09;;;;;;;4.45;1.00;;;18.30;99.90;;;;;;5016718;28;20048;-80
2022/07/07 08:40:35;;;;;;;4.03;0.90;;;18.40;99.90;;;;;;5015608;28;20042;-79
2022/07/07 08:43:01;;;;;;;9.13;1.00;;;18.50;99.90;;;;;;5017386;28;20432;-80
2022/07/07 08:45:27;;;;;;;5.68;1.30;;;18.10;99.90;;;;;;5016327;28;20073;-80
2022/07/07 08:47:52;;;;;;;5.97;1.67;;;17.80;99.90;;;;;;5017104;28;20461;-80
2022/07/07 08:50:18;;;;;;;4.18;1.15;;;17.50;99.90;;;;;;5001261;28;20418;-81
2022/07/07 08:52:45;;;;;;;8.10;1.77;;;17.30;99.90;;;;;;5017812;28;20052;-81
2022/07/07 08:55:15;;;;;;;7.00;1.60;;;17.30;99.90;;;;;;5018471;28;20038;-84
2022/07/07 08:57:42;;;;;;;9.23;1.60;;;17.10;99.90;;;;;;5016951;28;20041;-82
2022/07/07 09:00:08;;;;;;;5.28;1.48;;;17.30;99.90;;;;;;5016649;28;20063;-82
2022/07/07 09:02:33;;;;;;;6.90;1.60;;;17.20;99.90;;;;;;5018528;28;20060;-78
2022/07/07 09:04:59;;;;;;;6.03;1.65;;;17.20;99.90;;;;;;5021189;28;20466;-82
2022/07/07 09:07:44;;;;;;;9.25;1.75;;;17.20;99.90;;;;;;5023221;28;20598;-84
2022/07/07 09:10:10;;;;;;;8.38;1.90;;;17.40;99.90;;;;;;5026494;28;20072;-83
2022/07/07 09:12:35;;;;;;;6.25;2.58;;;17.70;99.90;;;;;;5024075;28;20049;-82
2022/07/07 09:15:03;;;;;;;6.57;2.10;;;17.60;99.90;;;;;;5028691;28;20034;-84
2022/07/07 09:17:30;;;;;;;7.20;1.80;;;17.80;99.90;;;;;;5026031;28;20037;-83
2022/07/07 09:20:09;;;;;;;5.72;1.80;;;17.60;99.90;;;;;;5019313;28;20045;-83
2022/07/07 09:22:42;;;;;;;5.93;1.63;;;17.70;99.90;;;;;;5006141;28;20037;-83
2022/07/07 09:25:08;;;;;;;6.75;2.00;;;17.70;99.90;;;;;;5020621;28;20037;-82
2022/07/07 09:28:02;;;;;;;5.82;1.80;;;17.40;99.90;;;;;;5017511;28;20080;-80
2022/07/07 09:30:37;;;;;;;8.00;1.27;;;16.90;99.90;;;;;;5013887;28;20053;-78
2022/07/07 09:33:24;;;;;;;4.68;1.23;;;16.60;99.90;;;;;;5015330;28;20041;-81
2022/07/07 09:38:39;;;;;;;5.20;1.45;;;16.70;99.90;;;;;;5018092;28;20419;-81
2022/07/07 09:41:13;;;;;;;5.20;1.40;;;17.00;99.90;;;;;;5017926;28;20041;-80
2022/07/07 09:43:53;;;;;;;8.98;1.55;;;17.40;99.90;;;;;;4999436;28;20164;-80
2022/07/07 09:46:29;;;;;;;6.88;1.40;;;17.50;99.90;;;;;;5009195;28;20046;-79
2022/07/07 09:48:58;;;;;;;4.13;1.42;;;17.70;99.90;;;;;;5021000;28;20052;-79
2022/07/07 09:51:34;;;;;;;6.40;2.35;;;17.60;99.90;;;;;;5034295;28;20044;-80
2022/07/07 09:54:10;;;;;;;5.03;1.35;;;17.50;99.90;;;;;;5026987;28;20462;-80
2022/07/07 09:56:41;;;;;;;6.43;1.20;;;17.30;99.90;;;;;;5030398;28;20096;-81
2022/07/07 09:59:13;;;;;;;5.18;1.17;;;17.20;99.90;;;;;;5030149;28;20034;-80
2022/07/07 10:01:41;;;;;;;7.63;1.63;;;17.20;99.90;;;;;;5025349;28;20038;-80
2022/07/07 10:04:13;;;;;;;6.75;1.65;;;17.20;99.90;;;;;;5032599;28;20025;-81
2022/07/07 10:06:41;;;;;;;6.82;1.42;;;17.20;99.90;;;;;;5026231;28;20042;-81
2022/07/07 10:09:16;;;;;;;4.68;1.25;;;17.20;99.90;;;;;;5030141;28;20041;-81
2022/07/07 10:11:55;;;;;;;5.85;1.60;;;17.30;99.90;;;;;;5026708;28;20272;-82
2022/07/07 10:14:24;;;;;;;5.78;1.35;;;17.20;99.90;;;;;;5028535;28;20044;-81
2022/07/07 10:16:52;;;;;;;9.25;1.95;;;17.50;99.90;;;;;;5023001;28;20046;-79
2022/07/07 10:19:19;;;;;;;9.00;1.70;;;17.30;99.90;;;;;;5027248;28;20049;-81
2022/07/07 10:21:50;;;;;;;10.23;2.03;;;17.30;99.90;;;;;;5027691;28;20045;-80
2022/07/07 10:24:18;;;;;;;9.65;1.70;;;17.10;99.90;;;;;;5022887;28;20064;-81
2022/07/07 10:26:46;;;;;;;10.63;1.90;;;17.10;99.90;;;;;;5023303;28;20041;-81
2022/07/07 10:29:12;;;;;;;10.68;1.80;;;16.90;99.90;;;;;;5024061;28;20521;-84
2022/07/07 10:31:38;;;;;;;5.22;1.38;;;16.80;99.90;;;;;;5009822;28;20045;-80
2022/07/07 10:34:08;;;;;;;9.93;1.67;;;16.80;99.90;;;;;;5025486;28;20044;-81
2022/07/07 10:36:46;;;;;;;8.00;1.65;;;16.90;99.90;;;;;;5027632;28;20076;-81
2022/07/07 10:39:13;;;;;;;9.25;2.20;;;16.50;99.90;;;;;;5028392;28;20069;-80
2022/07/07 10:41:40;;;;;;;11.77;2.53;;;16.50;99.90;;;;;;5024186;28;20042;-79
2022/07/07 10:44:09;;;;;;;12.93;1.95;;;16.50;99.90;;;;;;5009477;28;20033;-80
2022/07/07 10:46:36;;;;;;;12.73;2.75;;;16.60;99.90;;;;;;5029291;28;20041;-83
2022/07/07 10:49:10;;;;;;;14.52;3.13;;;16.50;99.90;;;;;;5026235;28;20558;-81
2022/07/07 10:51:55;;;;;;;14.82;3.65;;;16.50;99.90;;;;;;5030044;28;20033;-81
2022/07/07 10:54:39;;;;;;;15.90;3.45;;;16.30;99.90;;;;;;5010591;28;20501;-80
2022/07/07 10:57:07;;;;;;;8.75;2.35;;;16.40;99.90;;;;;;5024278;28;20038;-81
2022/07/07 11:00:06;;;;;;;8.95;2.42;;;16.40;99.90;;;;;;5023760;28;20045;-79
2022/07/07 11:02:36;;;;;;;21.02;3.53;;;16.60;99.90;;;;;;5022351;28;20410;-79
2022/07/07 11:05:26;;;;;;;11.48;2.35;;;16.70;99.90;;;;;;5022369;28;20042;-79
2022/07/07 11:08:06;;;;;;;12.93;2.33;;;16.70;99.90;;;;;;5006237;28;20101;-80
2022/07/07 11:10:53;;;;;;;9.52;2.08;;;16.70;99.90;;;;;;5030624;28;20201;-79
2022/07/07 11:13:29;;;;;;;9.93;2.30;;;16.80;99.90;;;;;;5025137;28;20522;-80
2022/07/07 11:16:15;;;;;;;9.18;2.78;;;16.90;99.90;;;;;;5009350;28;20125;-81
2022/07/07 11:18:43;;;;;;;10.77;2.15;;;16.90;99.90;;;;;;5029314;23;20412;-71
2022/07/07 11:21:09;;;;;;;11.35;2.58;;;17.00;99.90;;;;;;4983446;28;20037;-71
2022/07/07 11:23:42;;;;;;;10.80;2.55;;;17.00;99.90;;;;;;4985282;28;20045;-71
2022/07/07 11:26:08;;;;;;;7.43;2.33;;;17.00;99.90;;;;;;5001748;28;20069;-72
2022/07/07 11:28:36;;;;;;;9.32;2.10;;;17.00;99.90;;;;;;5000532;28;20496;-71
2022/07/07 11:31:04;;;;;;;8.63;2.97;;;16.90;99.90;;;;;;5002644;28;20066;-71
2022/07/07 11:33:29;;;;;;;11.65;2.10;;;16.90;99.90;;;;;;5001663;28;20121;-71
2022/07/07 11:35:55;;;;;;;12.07;2.40;;;16.80;99.90;;;;;;5000627;28;20083;-71
2022/07/07 11:38:27;;;;;;;9.98;2.20;;;16.70;99.90;;;;;;5002851;28;20125;-71
2022/07/07 11:40:53;;;;;;;10.57;2.17;;;16.70;99.90;;;;;;4984239;28;20045;-71
2022/07/07 11:43:23;;;;;;;13.55;2.60;;;16.80;99.90;;;;;;4967381;28;20121;-71
2022/07/07 11:45:49;;;;;;;12.00;2.88;;;16.80;99.90;;;;;;4984276;28;20042;-71
2022/07/07 11:48:15;;;;;;;11.23;2.20;;;16.90;99.90;;;;;;5002480;28;20093;-71
2022/07/07 11:50:41;;;;;;;11.80;2.50;;;17.00;99.90;;;;;;5000454;28;20057;-71
2022/07/07 11:53:06;;;;;;;7.35;1.60;;;17.20;99.90;;;;;;5006386;28;20034;-71
2022/07/07 11:55:32;;;;;;;6.47;2.10;;;17.30;99.90;;;;;;5006721;28;20035;-71
2022/07/07 11:58:00;;;;;;;10.73;2.08;;;17.40;99.90;;;;;;5000437;28;20038;-71
2022/07/07 12:00:29;;;;;;;7.35;1.95;;;17.40;99.90;;;;;;5001394;28;20415;-70
2022/07/07 12:02:56;;;;;;;9.07;1.73;;;17.40;99.90;;;;;;5002692;28;20038;-71
2022/07/07 12:05:27;;;;;;;8.07;2.05;;;17.40;99.90;;;;;;4969194;28;20030;-71
2022/07/07 12:07:55;;;;;;;12.63;2.42;;;17.40;99.90;;;;;;4992190;28;20046;-71
2022/07/07 12:10:23;;;;;;;12.25;2.63;;;17.30;99.90;;;;;;4991931;28;20475;-71
2022/07/07 12:13:00;;;;;;;13.13;1.70;;;17.20;99.90;;;;;;4974714;28;20034;-71
2022/07/07 12:15:31;;;;;;;9.93;2.70;;;17.20;99.90;;;;;;4974876;28;20395;-71
2022/07/07 12:17:57;;;;;;;9.88;2.60;;;17.40;99.90;;;;;;4991818;28;20042;-71
2022/07/07 12:20:24;;;;;;;14.07;2.55;;;17.40;99.90;;;;;;4974189;28;20046;-71
2022/07/07 12:22:54;;;;;;;8.18;2.30;;;17.50;99.90;;;;;;4992010;28;20081;-71
2022/07/07 12:25:22;;;;;;;14.38;3.13;;;17.40;99.90;;;;;;4974407;28;20046;-71
2022/07/07 12:27:53;;;;;;;12.50;2.58;;;17.40;99.90;;;;;;4974741;28;20503;-70
2022/07/07 12:30:19;;;;;;;10.57;3.22;;;17.40;99.90;;;;;;4974245;28;20042;-71
2022/07/07 12:32:45;;;;;;;12.10;2.85;;;17.50;99.90;;;;;;4974445;28;20042;-71
2022/07/07 12:35:29;;;;;;;8.00;2.03;;;17.50;99.90;;;;;;4974464;28;20092;-72
2022/07/07 12:37:55;;;;;;;10.23;2.17;;;17.60;99.90;;;;;;4991725;28;20117;-71
2022/07/07 12:40:22;;;;;;;14.40;2.03;;;17.60;99.90;;;;;;4991858;28;20122;-71
2022/07/07 12:42:48;;;;;;;14.23;2.83;;;17.80;99.90;;;;;;4991992;28;20038;-71
2022/07/07 12:45:16;;;;;;;8.73;2.10;;;17.80;99.90;;;;;;4991970;28;20038;-71
2022/07/07 12:47:49;;;;;;;14.75;3.30;;;17.90;99.90;;;;;;4974742;28;20096;-72
2022/07/07 12:50:16;;;;;;;9.63;2.70;;;17.80;99.90;;;;;;4995177;28;20046;-71